createdAt,value
2018-09-10T00:00:03.728Z,59.09
2018-09-10T00:01:03.609Z,59.09
2018-09-10T00:02:03.824Z,59.08
2018-09-10T00:03:03.791Z,59.11
2018-09-10T00:04:03.805Z,59.1
2018-09-10T00:05:03.706Z,59.1
2018-09-10T00:06:03.578Z,59.14
2018-09-10T00:07:03.526Z,59.11
2018-09-10T00:08:03.638Z,59.08
2018-09-10T00:09:03.739Z,59.12
2018-09-10T00:10:03.852Z,59.08
2018-09-10T00:11:03.515Z,59.1
2018-09-10T00:12:03.845Z,59.11
2018-09-10T00:13:03.744Z,59.07
2018-09-10T00:14:03.925Z,59.06
2018-09-10T00:15:03.530Z,59.12
2018-09-10T00:16:03.530Z,59.14
2018-09-10T00:17:03.957Z,59.12
2018-09-10T00:18:03.733Z,59.1
2018-09-10T00:19:03.674Z,59.14
2018-09-10T00:20:03.688Z,59.11
2018-09-10T00:21:03.510Z,59.16
2018-09-10T00:22:03.812Z,59.12
2018-09-10T00:23:03.740Z,59.11
2018-09-10T00:24:03.585Z,59.14
2018-09-10T00:25:03.670Z,59.11
2018-09-10T00:26:03.721Z,59.14
2018-09-10T00:27:03.812Z,59.15
2018-09-10T00:28:03.526Z,59.11
2018-09-10T00:29:03.629Z,59.1
2018-09-10T00:30:03.639Z,59.1
2018-09-10T00:31:03.660Z,59.1
2018-09-10T00:32:03.485Z,59.09
2018-09-10T00:33:03.852Z,59.15
2018-09-10T00:34:03.905Z,59.1
2018-09-10T00:35:03.849Z,59.1
2018-09-10T00:36:04.085Z,59.1
2018-09-10T00:37:03.520Z,59.1
2018-09-10T00:38:03.829Z,59.1
2018-09-10T00:39:03.775Z,59.07
2018-09-10T00:40:03.755Z,59.09
2018-09-10T00:41:03.985Z,59.06
2018-09-10T00:42:03.671Z,59.11
2018-09-10T00:43:03.685Z,59.11
2018-09-10T00:44:03.846Z,59.1
2018-09-10T00:45:03.872Z,59.11
2018-09-10T00:46:03.813Z,59.11
2018-09-10T00:47:03.560Z,59.1
2018-09-10T00:48:03.937Z,59.11
2018-09-10T00:49:03.518Z,59.09
2018-09-10T00:50:03.974Z,59.08
2018-09-10T00:51:03.690Z,59.08
2018-09-10T00:52:03.708Z,59.1
2018-09-10T00:53:03.716Z,59.08
2018-09-10T00:54:03.713Z,59.06
2018-09-10T00:55:03.626Z,59.04
2018-09-10T00:56:03.901Z,59.04
2018-09-10T00:57:03.737Z,59.1
2018-09-10T00:58:04.071Z,59.07
2018-09-10T00:59:03.861Z,59.06
2018-09-10T01:00:03.807Z,59.08
2018-09-10T01:01:03.735Z,59.1
2018-09-10T01:02:03.856Z,59.11
2018-09-10T01:03:03.893Z,59.1
2018-09-10T01:04:03.610Z,59.11
2018-09-10T01:05:03.785Z,59.1
2018-09-10T01:06:03.609Z,59.09
2018-09-10T01:07:03.554Z,59.09
2018-09-10T01:08:03.830Z,59.06
2018-09-10T01:09:03.728Z,59.06
2018-09-10T01:10:03.980Z,59.08
2018-09-10T01:11:03.782Z,59.1
2018-09-10T01:12:03.613Z,59.12
2018-09-10T01:13:03.925Z,59.11
2018-09-10T01:14:03.885Z,59.09
2018-09-10T01:15:03.500Z,59.11
2018-09-10T01:16:03.698Z,59.08
2018-09-10T01:17:03.753Z,59.09
2018-09-10T01:18:03.621Z,59.13
2018-09-10T01:19:03.574Z,59.11
2018-09-10T01:20:03.693Z,59.06
2018-09-10T01:21:03.486Z,59.06
2018-09-10T01:22:03.755Z,59.07
2018-09-10T01:23:03.633Z,59.1
2018-09-10T01:24:03.954Z,59.08
2018-09-10T01:25:03.684Z,59.07
2018-09-10T01:26:03.723Z,59.05
2018-09-10T01:27:03.629Z,59.11
2018-09-10T01:28:04.013Z,59.06
2018-09-10T01:29:03.884Z,59.08
2018-09-10T01:30:03.501Z,59.09
2018-09-10T01:31:03.744Z,59.06
2018-09-10T01:32:03.534Z,59.07
2018-09-10T01:33:03.927Z,59.07
2018-09-10T01:34:03.841Z,59.09
2018-09-10T01:35:03.487Z,59.13
2018-09-10T01:36:03.625Z,59.09
2018-09-10T01:37:03.687Z,59.06
2018-09-10T01:38:03.557Z,59.09
2018-09-10T01:39:03.843Z,59.11
2018-09-10T01:40:03.526Z,59.08
2018-09-10T01:41:03.876Z,59.06
2018-09-10T01:42:03.557Z,59.08
2018-09-10T01:43:03.761Z,59.07
2018-09-10T01:44:03.549Z,59.07
2018-09-10T01:45:03.812Z,59.07
2018-09-10T01:46:03.477Z,59.08
2018-09-10T01:47:03.664Z,59.07
2018-09-10T01:48:03.570Z,59.07
2018-09-10T01:49:03.989Z,59.06
2018-09-10T01:50:03.976Z,59.07
2018-09-10T01:51:03.568Z,59.1
2018-09-10T01:52:03.501Z,59.09
2018-09-10T01:53:03.510Z,59.08
2018-09-10T01:54:03.477Z,59.06
2018-09-10T01:55:03.595Z,59.09
2018-09-10T01:56:03.537Z,59.02
2018-09-10T01:57:03.799Z,59.07
2018-09-10T01:58:03.505Z,59.05
2018-09-10T01:59:03.927Z,59.06
2018-09-10T02:00:03.622Z,59.03
2018-09-10T02:01:03.556Z,59.04
2018-09-10T02:02:03.849Z,59.06
2018-09-10T02:03:03.989Z,59.08
2018-09-10T02:04:03.852Z,59.06
2018-09-10T02:05:03.537Z,59.05
2018-09-10T02:06:03.857Z,59.06
2018-09-10T02:07:03.533Z,59.06
2018-09-10T02:08:04.207Z,59.05
2018-09-10T02:09:03.838Z,59.08
2018-09-10T02:10:03.903Z,59.07
2018-09-10T02:11:03.874Z,59.1
2018-09-10T02:12:03.495Z,59.02
2018-09-10T02:13:03.534Z,59.05
2018-09-10T02:14:03.496Z,59.05
2018-09-10T02:15:03.903Z,59.02
2018-09-10T02:16:03.521Z,59.06
2018-09-10T02:17:03.910Z,59.05
2018-09-10T02:18:03.599Z,59.06
2018-09-10T02:19:03.505Z,59.03
2018-09-10T02:20:03.723Z,59.05
2018-09-10T02:21:03.714Z,59.07
2018-09-10T02:22:03.787Z,59.06
2018-09-10T02:23:03.936Z,59.04
2018-09-10T02:24:03.529Z,59.1
2018-09-10T02:25:03.630Z,59.05
2018-09-10T02:26:03.545Z,59.05
2018-09-10T02:27:03.776Z,59.04
2018-09-10T02:28:03.468Z,59.04
2018-09-10T02:29:04.308Z,59.03
2018-09-10T02:30:03.738Z,59.04
2018-09-10T02:31:03.618Z,59.04
2018-09-10T02:32:03.961Z,59.02
2018-09-10T02:33:03.904Z,59.03
2018-09-10T02:34:03.593Z,59.06
2018-09-10T02:35:03.863Z,59.04
2018-09-10T02:36:03.500Z,59.01
2018-09-10T02:37:03.851Z,59.03
2018-09-10T02:38:03.673Z,59.06
2018-09-10T02:39:03.854Z,59.06
2018-09-10T02:40:03.951Z,59.02
2018-09-10T02:41:03.846Z,59.03
2018-09-10T02:42:03.766Z,59.04
2018-09-10T02:43:03.782Z,59.06
2018-09-10T02:44:03.867Z,59.04
2018-09-10T02:45:03.637Z,59.01
2018-09-10T02:46:03.762Z,59.02
2018-09-10T02:47:03.537Z,59.04
2018-09-10T02:48:03.764Z,59.03
2018-09-10T02:49:03.627Z,59.06
2018-09-10T02:50:03.699Z,59.05
2018-09-10T02:51:03.646Z,59.04
2018-09-10T02:52:03.760Z,59
2018-09-10T02:53:03.834Z,59.04
2018-09-10T02:54:03.721Z,59.04
2018-09-10T02:55:04.613Z,59.02
2018-09-10T02:56:03.737Z,59.01
2018-09-10T02:57:03.569Z,59.02
2018-09-10T02:58:03.801Z,59.05
2018-09-10T02:59:03.875Z,59.03
2018-09-10T03:00:03.499Z,59.08
2018-09-10T03:01:03.726Z,59.05
2018-09-10T03:02:03.556Z,59.04
2018-09-10T03:03:03.661Z,59.05
2018-09-10T03:04:03.744Z,59.07
2018-09-10T03:05:03.541Z,59.05
2018-09-10T03:06:03.587Z,59.1
2018-09-10T03:07:03.586Z,59.06
2018-09-10T03:08:03.654Z,59.08
2018-09-10T03:09:03.520Z,59.05
2018-09-10T03:10:03.531Z,59.02
2018-09-10T03:11:03.755Z,59.01
2018-09-10T03:12:03.633Z,59.04
2018-09-10T03:13:03.829Z,59.01
2018-09-10T03:14:03.887Z,58.97
2018-09-10T03:15:03.622Z,59.02
2018-09-10T03:16:03.564Z,59.05
2018-09-10T03:17:03.511Z,59.05
2018-09-10T03:18:04.804Z,59.04
2018-09-10T03:19:03.565Z,59.05
2018-09-10T03:20:04.020Z,59.02
2018-09-10T03:21:03.653Z,59.01
2018-09-10T03:22:03.871Z,59.04
2018-09-10T03:23:03.614Z,59.03
2018-09-10T03:24:04.089Z,59.01
2018-09-10T03:25:03.983Z,59.02
2018-09-10T03:26:03.503Z,58.99
2018-09-10T03:27:03.392Z,59.04
2018-09-10T03:28:03.537Z,59.05
2018-09-10T03:29:03.596Z,59
2018-09-10T03:30:03.894Z,59.01
2018-09-10T03:31:03.645Z,59.04
2018-09-10T03:32:04.084Z,59.03
2018-09-10T03:33:03.765Z,59.03
2018-09-10T03:34:03.767Z,59.03
2018-09-10T03:35:03.616Z,59.05
2018-09-10T03:36:03.820Z,59.05
2018-09-10T03:37:03.599Z,59.05
2018-09-10T03:38:03.562Z,59.03
2018-09-10T03:39:03.564Z,59.05
2018-09-10T03:40:03.658Z,59.05
2018-09-10T03:41:03.459Z,59
2018-09-10T03:42:03.842Z,59.02
2018-09-10T03:43:03.537Z,59
2018-09-10T03:44:03.918Z,59
2018-09-10T03:45:03.916Z,59.01
2018-09-10T03:46:03.594Z,59.02
2018-09-10T03:47:03.804Z,59.02
2018-09-10T03:48:03.830Z,59.01
2018-09-10T03:49:03.597Z,58.98
2018-09-10T03:50:03.661Z,59.01
2018-09-10T03:51:03.506Z,59.03
2018-09-10T03:52:03.645Z,58.99
2018-09-10T03:53:03.924Z,59.01
2018-09-10T03:54:03.550Z,59.02
2018-09-10T03:55:03.601Z,58.96
2018-09-10T03:56:03.825Z,58.99
2018-09-10T03:57:03.799Z,59.01
2018-09-10T03:58:03.909Z,58.93
2018-09-10T03:59:03.695Z,58.95
2018-09-10T04:00:03.661Z,58.93
2018-09-10T04:01:03.609Z,58.96
2018-09-10T04:02:03.615Z,58.96
2018-09-10T04:03:03.859Z,58.99
2018-09-10T04:04:03.636Z,58.98
2018-09-10T04:05:03.973Z,59.01
2018-09-10T04:06:03.469Z,58.97
2018-09-10T04:07:03.524Z,59
2018-09-10T04:08:03.498Z,58.98
2018-09-10T04:09:03.825Z,59
2018-09-10T04:10:03.445Z,58.97
2018-09-10T04:11:03.797Z,59.01
2018-09-10T04:12:03.795Z,58.97
2018-09-10T04:13:03.805Z,59
2018-09-10T04:14:03.452Z,59.03
2018-09-10T04:15:03.868Z,59.01
2018-09-10T04:16:03.833Z,58.97
2018-09-10T04:17:04.252Z,58.98
2018-09-10T04:18:03.757Z,59.01
2018-09-10T04:19:03.587Z,59.01
2018-09-10T04:20:03.543Z,58.98
2018-09-10T04:21:03.548Z,58.97
2018-09-10T04:22:03.437Z,58.97
2018-09-10T04:23:04.150Z,58.98
2018-09-10T04:24:03.788Z,58.97
2018-09-10T04:25:03.653Z,58.97
2018-09-10T04:26:04.939Z,58.99
2018-09-10T04:27:03.543Z,59
2018-09-10T04:28:03.514Z,58.99
2018-09-10T04:29:03.612Z,58.96
2018-09-10T04:30:03.726Z,59
2018-09-10T04:31:03.560Z,58.97
2018-09-10T04:32:03.824Z,58.99
2018-09-10T04:33:03.754Z,58.96
2018-09-10T04:34:03.761Z,59.02
2018-09-10T04:35:03.879Z,58.99
2018-09-10T04:36:04.274Z,59
2018-09-10T04:37:04.101Z,58.99
2018-09-10T04:38:03.691Z,58.96
2018-09-10T04:39:03.852Z,58.99
2018-09-10T04:40:03.508Z,58.99
2018-09-10T04:41:03.458Z,59
2018-09-10T04:42:03.969Z,58.97
2018-09-10T04:43:03.534Z,58.94
2018-09-10T04:44:03.752Z,59
2018-09-10T04:45:03.733Z,59
2018-09-10T04:46:03.803Z,59.01
2018-09-10T04:47:03.582Z,59.01
2018-09-10T04:48:03.657Z,59.01
2018-09-10T04:49:03.582Z,59.01
2018-09-10T04:50:03.555Z,59.03
2018-09-10T04:51:03.572Z,59.03
2018-09-10T04:52:03.541Z,59.06
2018-09-10T04:53:03.619Z,59.05
2018-09-10T04:54:03.551Z,59.04
2018-09-10T04:55:03.432Z,59.06
2018-09-10T04:56:03.541Z,59.05
2018-09-10T04:57:03.814Z,59.04
2018-09-10T04:58:04.181Z,59.04
2018-09-10T04:59:03.713Z,59.05
2018-09-10T05:00:03.590Z,59.03
2018-09-10T05:01:03.573Z,59
2018-09-10T05:02:03.627Z,59.06
2018-09-10T05:03:03.431Z,59.05
2018-09-10T05:04:03.701Z,59.02
2018-09-10T05:05:03.555Z,59.06
2018-09-10T05:06:03.530Z,59.08
2018-09-10T05:07:03.686Z,59.12
2018-09-10T05:08:03.674Z,59.07
2018-09-10T05:09:03.691Z,59.08
2018-09-10T05:10:04.520Z,59.07
2018-09-10T05:11:03.534Z,59.06
2018-09-10T05:12:03.778Z,59.04
2018-09-10T05:13:04.093Z,59.05
2018-09-10T05:14:04.033Z,59.05
2018-09-10T05:15:03.505Z,59.09
2018-09-10T05:16:03.541Z,59.04
2018-09-10T05:17:03.637Z,59.04
2018-09-10T05:18:03.434Z,59.06
2018-09-10T05:19:03.612Z,59.04
2018-09-10T05:20:03.517Z,59.02
2018-09-10T05:21:03.560Z,59.05
2018-09-10T05:22:04.515Z,59.04
2018-09-10T05:23:03.770Z,59.04
2018-09-10T05:24:03.753Z,59.08
2018-09-10T05:25:03.537Z,59.06
2018-09-10T05:26:03.615Z,59.01
2018-09-10T05:27:03.939Z,59.06
2018-09-10T05:28:03.971Z,59.06
2018-09-10T05:29:03.696Z,59.01
2018-09-10T05:30:03.726Z,59.04
2018-09-10T05:31:03.612Z,59.05
2018-09-10T05:32:03.899Z,59
2018-09-10T05:33:03.609Z,59.03
2018-09-10T05:34:03.741Z,59.02
2018-09-10T05:35:03.809Z,59.01
2018-09-10T05:36:03.841Z,59.06
2018-09-10T05:37:03.430Z,59.04
2018-09-10T05:38:03.796Z,59.05
2018-09-10T05:39:03.949Z,59.06
2018-09-10T05:40:03.791Z,59.03
2018-09-10T05:41:03.516Z,59.03
2018-09-10T05:42:03.866Z,59.04
2018-09-10T05:43:03.760Z,59.01
2018-09-10T05:44:03.872Z,59.02
2018-09-10T05:45:03.590Z,59.02
2018-09-10T05:46:03.841Z,59.04
2018-09-10T05:47:03.491Z,58.99
2018-09-10T05:48:03.514Z,59.01
2018-09-10T05:49:03.710Z,58.99
2018-09-10T05:50:03.753Z,58.97
2018-09-10T05:51:03.502Z,59.02
2018-09-10T05:52:03.599Z,58.97
2018-09-10T05:53:03.680Z,59.04
2018-09-10T05:54:03.856Z,59.03
2018-09-10T05:55:03.782Z,59.02
2018-09-10T05:56:03.788Z,59.02
2018-09-10T05:57:03.622Z,59.01
2018-09-10T05:58:03.597Z,59.04
2018-09-10T05:59:03.755Z,59.02
2018-09-10T06:00:03.528Z,58.98
2018-09-10T06:01:03.802Z,59
2018-09-10T06:02:03.423Z,58.98
2018-09-10T06:03:03.794Z,59.01
2018-09-10T06:04:03.618Z,58.98
2018-09-10T06:05:03.654Z,58.98
2018-09-10T06:06:03.604Z,58.99
2018-09-10T06:07:03.531Z,58.95
2018-09-10T06:08:03.621Z,58.98
2018-09-10T06:09:03.478Z,59.01
2018-09-10T06:10:03.838Z,58.97
2018-09-10T06:11:03.657Z,59
2018-09-10T06:12:03.510Z,59
2018-09-10T06:13:03.504Z,58.98
2018-09-10T06:14:03.684Z,58.97
2018-09-10T06:15:03.377Z,58.98
2018-09-10T06:16:03.469Z,59.01
2018-09-10T06:17:03.463Z,58.98
2018-09-10T06:18:03.572Z,59.02
2018-09-10T06:19:03.712Z,59
2018-09-10T06:20:03.474Z,59
2018-09-10T06:21:03.570Z,59.02
2018-09-10T06:22:03.612Z,59
2018-09-10T06:23:03.422Z,59.06
2018-09-10T06:24:03.753Z,59.04
2018-09-10T06:25:03.867Z,59.04
2018-09-10T06:26:03.736Z,58.96
2018-09-10T06:27:03.699Z,59.01
2018-09-10T06:28:03.506Z,59.04
2018-09-10T06:29:03.465Z,59.04
2018-09-10T06:30:03.816Z,59.01
2018-09-10T06:31:03.778Z,59.01
2018-09-10T06:32:03.582Z,59.03
2018-09-10T06:33:03.535Z,59.06
2018-09-10T06:34:03.823Z,59.05
2018-09-10T06:35:03.525Z,59.06
2018-09-10T06:36:03.907Z,59.01
2018-09-10T06:37:04.302Z,59.03
2018-09-10T06:38:03.548Z,59.03
2018-09-10T06:39:03.639Z,59.03
2018-09-10T06:40:03.492Z,59.02
2018-09-10T06:41:03.485Z,58.99
2018-09-10T06:42:03.750Z,59
2018-09-10T06:43:03.466Z,59.01
2018-09-10T06:44:03.780Z,58.98
2018-09-10T06:45:03.619Z,59.01
2018-09-10T06:46:03.824Z,59
2018-09-10T06:47:03.454Z,59.04
2018-09-10T06:48:03.570Z,59.03
2018-09-10T06:49:03.740Z,59.02
2018-09-10T06:50:03.434Z,59.02
2018-09-10T06:51:03.733Z,59.02
2018-09-10T06:52:03.559Z,59.04
2018-09-10T06:53:03.900Z,59.01
2018-09-10T06:54:03.624Z,59.03
2018-09-10T06:55:03.599Z,59.01
2018-09-10T06:56:03.502Z,59.03
2018-09-10T06:57:03.716Z,59.02
2018-09-10T06:58:03.494Z,59.03
2018-09-10T06:59:03.592Z,59.02
2018-09-10T07:00:03.513Z,58.98
2018-09-10T07:01:03.555Z,59.02
2018-09-10T07:02:03.685Z,58.99
2018-09-10T07:03:03.509Z,58.99
2018-09-10T07:04:03.518Z,58.97
2018-09-10T07:05:03.491Z,59.01
2018-09-10T07:06:03.834Z,59.01
2018-09-10T07:07:03.561Z,59.02
2018-09-10T07:08:03.494Z,58.99
2018-09-10T07:09:03.746Z,59
2018-09-10T07:10:03.708Z,59.02
2018-09-10T07:11:04.139Z,58.96
2018-09-10T07:12:03.825Z,59.08
2018-09-10T07:13:03.796Z,59.03
2018-09-10T07:14:03.453Z,59.03
2018-09-10T07:15:03.431Z,59.03
2018-09-10T07:16:03.422Z,59.06
2018-09-10T07:17:03.962Z,59.04
2018-09-10T07:18:03.422Z,59.02
2018-09-10T07:19:04.339Z,59.03
2018-09-10T07:20:03.753Z,59.03
2018-09-10T07:21:03.558Z,59.04
2018-09-10T07:22:03.402Z,58.99
2018-09-10T07:23:03.531Z,59.01
2018-09-10T07:24:03.753Z,59.01
2018-09-10T07:25:03.770Z,58.98
2018-09-10T07:26:04.036Z,59.04
2018-09-10T07:27:03.622Z,59.08
2018-09-10T07:28:03.546Z,59.04
2018-09-10T07:29:03.437Z,59.06
2018-09-10T07:30:03.465Z,59.08
2018-09-10T07:31:04.001Z,59.03
2018-09-10T07:32:03.505Z,59.04
2018-09-10T07:33:03.629Z,59.01
2018-09-10T07:34:03.681Z,59
2018-09-10T07:35:03.509Z,59
2018-09-10T07:36:03.456Z,59.03
2018-09-10T07:37:03.453Z,59.01
2018-09-10T07:38:03.444Z,59.04
2018-09-10T07:39:03.673Z,59.06
2018-09-10T07:40:03.526Z,59.02
2018-09-10T07:41:03.694Z,59.06
2018-09-10T07:42:03.505Z,59.06
2018-09-10T07:43:03.571Z,59.08
2018-09-10T07:44:04.252Z,59.06
2018-09-10T07:45:03.551Z,59.05
2018-09-10T07:46:03.495Z,59.07
2018-09-10T07:47:03.463Z,59.05
2018-09-10T07:48:03.430Z,59.08
2018-09-10T07:49:03.917Z,59.1
2018-09-10T07:50:03.467Z,59.12
2018-09-10T07:51:03.852Z,59.1
2018-09-10T07:52:03.543Z,59.12
2018-09-10T07:53:03.525Z,59.11
2018-09-10T07:54:03.668Z,59.12
2018-09-10T07:55:03.464Z,59.12
2018-09-10T07:56:03.827Z,58.92
2018-09-10T07:57:03.550Z,58.86
2018-09-10T07:58:03.444Z,58.73
2018-09-10T07:59:03.461Z,58.77
2018-09-10T08:00:03.921Z,58.72
2018-09-10T08:01:03.550Z,58.88
2018-09-10T08:02:03.427Z,58.84
2018-09-10T08:03:04.478Z,58.86
2018-09-10T08:04:03.606Z,58.82
2018-09-10T08:05:03.953Z,58.69
2018-09-10T08:06:03.609Z,58.68
2018-09-10T08:07:03.813Z,58.61
2018-09-10T08:08:03.525Z,58.71
2018-09-10T08:09:03.929Z,58.69
2018-09-10T08:10:03.744Z,58.73
2018-09-10T08:11:03.533Z,58.82
2018-09-10T08:12:03.599Z,58.9
2018-09-10T08:13:03.562Z,58.85
2018-09-10T08:14:03.613Z,58.97
2018-09-10T08:15:03.493Z,58.99
2018-09-10T08:16:03.417Z,59.03
2018-09-10T08:17:03.946Z,59.02
2018-09-10T08:18:03.357Z,59.08
2018-09-10T08:19:03.582Z,59.04
2018-09-10T08:20:03.582Z,59.03
2018-09-10T08:21:03.431Z,59.04
2018-09-10T08:22:03.796Z,59.01
2018-09-10T08:23:03.657Z,59.02
2018-09-10T08:24:03.985Z,59.13
2018-09-10T08:25:04.111Z,59.12
2018-09-10T08:26:03.540Z,59.13
2018-09-10T08:27:03.488Z,59.13
2018-09-10T08:28:03.424Z,59.15
2018-09-10T08:29:03.569Z,59.24
2018-09-10T08:30:03.522Z,59.22
2018-09-10T08:31:03.381Z,59.21
2018-09-10T08:32:03.405Z,59.26
2018-09-10T08:33:04.029Z,59.25
2018-09-10T08:34:03.432Z,59.22
2018-09-10T08:35:03.479Z,59.27
2018-09-10T08:36:03.678Z,59.35
2018-09-10T08:37:03.381Z,59.4
2018-09-10T08:38:03.432Z,59.31
2018-09-10T08:39:03.451Z,59.36
2018-09-10T08:40:03.429Z,59.33
2018-09-10T08:41:03.871Z,59.3
2018-09-10T08:42:03.522Z,59.26
2018-09-10T08:43:03.691Z,59.24
2018-09-10T08:44:03.712Z,59.36
2018-09-10T08:45:03.466Z,59.39
2018-09-10T08:46:03.908Z,59.33
2018-09-10T08:47:03.423Z,59.28
2018-09-10T08:48:03.645Z,59.33
2018-09-10T08:49:03.563Z,59.29
2018-09-10T08:50:03.613Z,59.31
2018-09-10T08:51:03.481Z,59.33
2018-09-10T08:52:03.539Z,59.29
2018-09-10T08:53:03.875Z,59.32
2018-09-10T08:54:04.705Z,59.24
2018-09-10T08:55:05.945Z,59.32
2018-09-10T08:56:06.826Z,59.33
2018-09-10T08:57:03.541Z,59.39
2018-09-10T08:58:03.446Z,59.31
2018-09-10T08:59:03.471Z,59.37
2018-09-10T09:00:04.143Z,59.09
2018-09-10T09:01:03.556Z,59.07
2018-09-10T09:02:04.292Z,59.07
2018-09-10T09:03:03.842Z,59.07
2018-09-10T09:04:03.461Z,59.02
2018-09-10T09:05:03.542Z,59
2018-09-10T09:06:04.542Z,59.01
2018-09-10T09:07:03.352Z,59.01
2018-09-10T09:08:04.181Z,59.01
2018-09-10T09:09:03.521Z,58.99
2018-09-10T09:10:03.389Z,59
2018-09-10T09:11:03.596Z,58.98
2018-09-10T09:12:03.561Z,58.99
2018-09-10T09:13:03.375Z,58.99
2018-09-10T09:14:03.691Z,59.02
2018-09-10T09:15:03.395Z,59.03
2018-09-10T09:16:03.604Z,59.03
2018-09-10T09:17:03.791Z,59
2018-09-10T09:18:03.584Z,59.04
2018-09-10T09:19:03.373Z,59.05
2018-09-10T09:20:03.604Z,59.03
2018-09-10T09:21:03.584Z,59.01
2018-09-10T09:22:03.603Z,59.02
2018-09-10T09:23:03.965Z,59.02
2018-09-10T09:24:04.000Z,59.01
2018-09-10T09:25:03.476Z,59.01
2018-09-10T09:26:04.105Z,59
2018-09-10T09:27:03.591Z,59
2018-09-10T09:28:03.359Z,59
2018-09-10T09:29:03.499Z,58.97
2018-09-10T09:30:04.189Z,58.99
2018-09-10T09:31:03.433Z,59.02
2018-09-10T09:32:03.885Z,59
2018-09-10T09:33:03.489Z,59
2018-09-10T09:34:03.807Z,58.99
2018-09-10T09:35:03.497Z,58.98
2018-09-10T09:36:03.733Z,58.98
2018-09-10T09:37:03.414Z,59
2018-09-10T09:38:03.909Z,58.97
2018-09-10T09:39:04.039Z,58.97
2018-09-10T09:40:03.748Z,59.01
2018-09-10T09:41:03.488Z,59.01
2018-09-10T09:42:03.548Z,58.96
2018-09-10T09:43:03.378Z,58.96
2018-09-10T09:44:03.682Z,58.99
2018-09-10T09:45:03.589Z,58.95
2018-09-10T09:46:03.507Z,58.96
2018-09-10T09:47:03.853Z,59
2018-09-10T09:48:04.217Z,59
2018-09-10T09:49:03.833Z,58.96
2018-09-10T09:50:03.712Z,58.96
2018-09-10T09:51:04.062Z,59
2018-09-10T09:52:03.541Z,58.96
2018-09-10T09:53:03.577Z,59.01
2018-09-10T09:54:04.367Z,58.97
2018-09-10T09:55:04.216Z,58.99
2018-09-10T09:56:03.621Z,58.99
2018-09-10T09:57:03.503Z,58.97
2018-09-10T09:58:03.750Z,58.99
2018-09-10T09:59:03.769Z,58.99
2018-09-10T10:00:04.826Z,59.01
2018-09-10T10:01:03.427Z,58.97
2018-09-10T10:02:03.591Z,59
2018-09-10T10:03:03.595Z,59.03
2018-09-10T10:04:03.949Z,58.99
2018-09-10T10:05:03.581Z,58.99
2018-09-10T10:06:03.372Z,58.97
2018-09-10T10:07:03.687Z,58.97
2018-09-10T10:08:03.848Z,58.99
2018-09-10T10:09:03.533Z,59.01
2018-09-10T10:10:03.923Z,59
2018-09-10T10:11:03.935Z,58.95
2018-09-10T10:12:04.423Z,58.95
2018-09-10T10:13:03.356Z,58.99
2018-09-10T10:14:03.284Z,58.97
2018-09-10T10:15:03.517Z,58.97
2018-09-10T10:16:04.333Z,58.99
2018-09-10T10:17:03.495Z,58.97
2018-09-10T10:18:03.326Z,58.98
2018-09-10T10:19:03.527Z,58.95
2018-09-10T10:20:03.362Z,58.98
2018-09-10T10:21:03.861Z,58.99
2018-09-10T10:22:04.352Z,59
2018-09-10T10:23:03.418Z,58.99
2018-09-10T10:24:03.398Z,58.97
2018-09-10T10:25:03.554Z,58.98
2018-09-10T10:26:03.430Z,58.93
2018-09-10T10:27:03.553Z,58.96
2018-09-10T10:28:03.666Z,58.98
2018-09-10T10:29:03.645Z,58.99
2018-09-10T10:30:03.983Z,58.93
2018-09-10T10:31:03.487Z,58.97
2018-09-10T10:32:03.392Z,58.96
2018-09-10T10:33:03.391Z,58.95
2018-09-10T10:34:03.582Z,58.99
2018-09-10T10:35:03.334Z,58.96
2018-09-10T10:36:03.548Z,58.98
2018-09-10T10:37:03.610Z,58.96
2018-09-10T10:38:03.327Z,58.95
2018-09-10T10:39:04.168Z,59
2018-09-10T10:40:04.250Z,58.99
2018-09-10T10:41:03.445Z,58.99
2018-09-10T10:42:03.348Z,58.94
2018-09-10T10:43:03.509Z,58.96
2018-09-10T10:44:03.396Z,59.01
2018-09-10T10:45:03.397Z,58.95
2018-09-10T10:46:03.901Z,59
2018-09-10T10:47:03.412Z,58.99
2018-09-10T10:48:03.668Z,59.02
2018-09-10T10:49:03.450Z,59.01
2018-09-10T10:50:03.375Z,58.96
2018-09-10T10:51:03.681Z,59.01
2018-09-10T10:52:03.490Z,59.01
2018-09-10T10:53:03.395Z,59.01
2018-09-10T10:54:03.449Z,59
2018-09-10T10:55:03.485Z,59.01
2018-09-10T10:56:03.488Z,58.97
2018-09-10T10:57:03.497Z,58.97
2018-09-10T10:58:03.455Z,59.01
2018-09-10T10:59:03.548Z,58.97
2018-09-10T11:00:03.479Z,59.01
2018-09-10T11:01:03.540Z,58.97
2018-09-10T11:02:03.544Z,58.96
2018-09-10T11:03:03.446Z,58.96
2018-09-10T11:04:03.936Z,59.01
2018-09-10T11:05:03.614Z,58.99
2018-09-10T11:06:03.609Z,59
2018-09-10T11:07:03.434Z,58.97
2018-09-10T11:08:03.495Z,58.97
2018-09-10T11:09:03.620Z,59.01
2018-09-10T11:10:03.711Z,59
2018-09-10T11:11:04.060Z,58.99
2018-09-10T11:12:03.506Z,59.02
2018-09-10T11:13:03.471Z,59.01
2018-09-10T11:14:03.433Z,58.99
2018-09-10T11:15:03.675Z,59.02
2018-09-10T11:16:03.503Z,58.99
2018-09-10T11:17:03.770Z,59.01
2018-09-10T11:18:03.701Z,59.05
2018-09-10T11:19:03.659Z,59.03
2018-09-10T11:20:03.517Z,59.01
2018-09-10T11:21:03.498Z,59.03
2018-09-10T11:22:03.895Z,59.04
2018-09-10T11:23:03.786Z,59.03
2018-09-10T11:24:03.635Z,59.03
2018-09-10T11:25:03.388Z,59.05
2018-09-10T11:26:03.918Z,59.01
2018-09-10T11:27:03.436Z,59.04
2018-09-10T11:28:03.559Z,59
2018-09-10T11:29:03.474Z,59.01
2018-09-10T11:30:03.520Z,59.06
2018-09-10T11:31:03.636Z,59.04
2018-09-10T11:32:03.419Z,59.01
2018-09-10T11:33:03.751Z,59.02
2018-09-10T11:34:03.464Z,59.04
2018-09-10T11:35:03.581Z,59.03
2018-09-10T11:36:03.779Z,59.03
2018-09-10T11:37:03.630Z,59.04
2018-09-10T11:38:03.411Z,59.06
2018-09-10T11:39:03.562Z,59.03
2018-09-10T11:40:03.827Z,59.07
2018-09-10T11:41:03.429Z,59.07
2018-09-10T11:42:03.383Z,59.06
2018-09-10T11:43:03.543Z,59.06
2018-09-10T11:44:03.529Z,59.08
2018-09-10T11:45:03.453Z,59.07
2018-09-10T11:46:03.432Z,59.05
2018-09-10T11:47:03.594Z,59.05
2018-09-10T11:48:03.363Z,59.1
2018-09-10T11:49:03.530Z,59.06
2018-09-10T11:50:03.540Z,59.05
2018-09-10T11:51:03.624Z,59.06
2018-09-10T11:52:03.504Z,59.06
2018-09-10T11:53:03.680Z,59.04
2018-09-10T11:54:03.465Z,59.06
2018-09-10T11:55:03.333Z,59.09
2018-09-10T11:56:03.660Z,59.11
2018-09-10T11:57:03.636Z,59.09
2018-09-10T11:58:03.851Z,59.09
2018-09-10T11:59:03.478Z,59.09
2018-09-10T12:00:03.811Z,59.14
2018-09-10T12:01:03.850Z,59.11
2018-09-10T12:02:04.217Z,59.1
2018-09-10T12:03:03.697Z,59.08
2018-09-10T12:04:03.379Z,59.07
2018-09-10T12:05:03.741Z,59.09
2018-09-10T12:06:03.425Z,59.1
2018-09-10T12:07:03.668Z,59.12
2018-09-10T12:08:03.800Z,59.09
2018-09-10T12:09:03.749Z,59.08
2018-09-10T12:10:03.965Z,59.09
2018-09-10T12:11:03.509Z,59.11
2018-09-10T12:12:03.637Z,59.13
2018-09-10T12:13:03.518Z,59.12
2018-09-10T12:14:03.401Z,59.14
2018-09-10T12:15:03.532Z,59.14
2018-09-10T12:16:03.492Z,59.13
2018-09-10T12:17:03.593Z,59.09
2018-09-10T12:18:03.471Z,59.11
2018-09-10T12:19:03.509Z,59.11
2018-09-10T12:20:03.534Z,59.09
2018-09-10T12:21:03.725Z,59.07
2018-09-10T12:22:03.438Z,59.11
2018-09-10T12:23:03.705Z,59.12
2018-09-10T12:24:03.524Z,59.12
2018-09-10T12:25:03.538Z,59.1
2018-09-10T12:26:03.367Z,59.12
2018-09-10T12:27:03.506Z,59.12
2018-09-10T12:28:03.396Z,59.21
2018-09-10T12:29:03.394Z,59.14
2018-09-10T12:30:03.499Z,59.15
2018-09-10T12:31:03.429Z,59.13
2018-09-10T12:32:03.737Z,59.13
2018-09-10T12:33:03.772Z,59.13
2018-09-10T12:34:03.909Z,59.11
2018-09-10T12:35:03.528Z,59.1
2018-09-10T12:36:03.442Z,59.13
2018-09-10T12:37:03.417Z,59.14
2018-09-10T12:38:03.839Z,59.14
2018-09-10T12:39:03.470Z,59.12
2018-09-10T12:40:03.466Z,59.17
2018-09-10T12:41:04.073Z,59.14
2018-09-10T12:42:03.512Z,59.14
2018-09-10T12:43:03.456Z,59.11
2018-09-10T12:44:03.342Z,59.16
2018-09-10T12:45:03.387Z,59.13
2018-09-10T12:46:03.367Z,59.17
2018-09-10T12:47:03.316Z,59.16
2018-09-10T12:48:03.462Z,59.11
2018-09-10T12:49:03.829Z,59.15
2018-09-10T12:50:03.579Z,59.16
2018-09-10T12:51:03.818Z,59.12
2018-09-10T12:52:03.378Z,59.12
2018-09-10T12:53:03.611Z,59.13
2018-09-10T12:54:03.595Z,59.13
2018-09-10T12:55:03.488Z,59.13
2018-09-10T12:56:03.751Z,59.13
2018-09-10T12:57:03.417Z,59.14
2018-09-10T12:58:03.366Z,59.12